Time;durP1;ratioP1;P1;durP2;ratioP2;P2;SDS_P1;SDS_P2;PMS_P1;PMS_P2;Temp;Humidity;BMP_temperature;BMP_pressure;BME280_temperature;BME280_humidity;BME280_pressure;Samples;Min_cycle;Max_cycle;Signal;HPM_P1;HPM_P2
2022/07/03 00:01:43;;;;;;;4.07;2.45;;;;;;;24.06;59.03;100018.78;5034200;28;20128;-92
2022/07/03 00:04:09;;;;;;;4.15;2.40;;;;;;;24.10;59.37;100031.09;5033140;28;20029;-92
2022/07/03 00:06:35;;;;;;;4.18;2.30;;;;;;;24.16;59.68;100043.31;5034939;28;20033;-93
2022/07/03 00:09:03;;;;;;;3.42;1.73;;;;;;;24.00;59.37;100019.19;5035248;28;20038;-94
2022/07/03 00:11:29;;;;;;;3.92;3.00;;;;;;;24.09;59.41;100044.69;5033859;28;20032;-93
2022/07/03 00:13:54;;;;;;;2.75;2.10;;;;;;;23.93;59.74;100012.50;5036794;28;20052;-93
2022/07/03 00:16:22;;;;;;;4.28;2.63;;;;;;;23.72;59.75;99985.94;5035266;28;20503;-92
2022/07/03 00:18:47;;;;;;;3.22;2.03;;;;;;;23.88;60.05;100018.19;5035646;28;20102;-93
2022/07/03 00:21:19;;;;;;;3.40;2.15;;;;;;;23.91;59.49;100015.28;5035001;28;20120;-93
2022/07/03 00:23:51;;;;;;;3.60;2.33;;;;;;;23.96;59.86;100044.63;5036042;28;20033;-93
2022/07/03 00:26:19;;;;;;;3.75;2.75;;;;;;;23.96;60.09;100039.25;5036199;28;20100;-94
2022/07/03 00:28:45;;;;;;;3.17;1.85;;;;;;;23.49;60.31;99975.81;5056772;28;20029;-95
2022/07/03 00:31:12;;;;;;;5.30;3.05;;;;;;;23.83;60.35;100036.44;5053827;28;20033;-94
2022/07/03 00:33:38;;;;;;;3.10;2.30;;;;;;;23.57;60.67;99987.84;5052444;28;20472;-94
2022/07/03 00:36:04;;;;;;;9.23;3.05;;;;;;;23.39;61.15;100024.84;5053685;28;20053;-93
2022/07/03 00:38:30;;;;;;;4.65;3.15;;;;;;;23.54;60.87;100008.69;5035499;28;20025;-94
2022/07/03 00:40:55;;;;;;;4.32;2.58;;;;;;;23.45;60.22;99990.44;5034364;28;20032;-93
2022/07/03 00:43:21;;;;;;;4.18;2.60;;;;;;;23.18;60.83;99970.56;5053158;28;20043;-95
2022/07/03 00:45:49;;;;;;;3.53;2.47;;;;;;;23.45;60.91;100011.97;5035377;28;20127;-94
2022/07/03 00:48:17;;;;;;;6.93;3.40;;;;;;;23.32;61.25;99990.34;5034816;28;20029;-94
2022/07/03 00:50:48;;;;;;;4.72;2.67;;;;;;;23.33;61.29;99987.56;5053716;28;20041;-94
2022/07/03 00:53:18;;;;;;;3.75;2.78;;;;;;;23.21;61.83;99980.28;5035059;28;20025;-93
2022/07/03 00:55:48;;;;;;;3.55;2.35;;;;;;;23.31;61.89;99983.22;5053359;28;20086;-95
2022/07/03 00:58:16;;;;;;;4.65;2.70;;;;;;;23.54;61.32;100000.59;5034810;28;20033;-94
2022/07/03 01:00:42;;;;;;;5.13;2.75;;;;;;;23.27;61.59;99949.44;5052819;28;20503;-94
2022/07/03 01:03:15;;;;;;;4.97;2.97;;;;;;;23.47;61.95;99997.47;5053200;28;20518;-94
2022/07/03 01:05:49;;;;;;;5.88;2.60;;;;;;;23.47;62.41;99996.59;5034685;28;20029;-94
2022/07/03 01:08:46;;;;;;;4.30;2.58;;;;;;;23.53;62.28;99993.50;5035508;28;20128;-95
2022/07/03 01:11:39;;;;;;;5.05;2.55;;;;;;;23.56;62.10;99999.56;5037838;28;20041;-93
2022/07/03 01:14:39;;;;;;;7.22;4.05;;;;;;;23.33;62.54;99989.41;5030914;28;20072;-93
2022/07/03 01:17:11;;;;;;;3.97;2.47;;;;;;;22.90;62.58;99944.50;5031929;28;20128;-94
2022/07/03 01:19:46;;;;;;;4.72;2.92;;;;;;;23.07;63.06;99965.81;5047537;28;20033;-94
2022/07/03 01:22:33;;;;;;;4.75;2.80;;;;;;;22.92;64.44;99999.03;5032836;28;20044;-94
2022/07/03 01:25:26;;;;;;;3.95;2.50;;;;;;;22.88;65.13;99997.53;5048592;28;20041;-94
2022/07/03 01:28:01;;;;;;;4.70;2.45;;;;;;;22.93;64.73;99981.97;5031367;28;20507;-95
2022/07/03 01:30:30;;;;;;;5.63;2.93;;;;;;;22.99;64.63;99991.50;5049088;28;20029;-94
2022/07/03 01:33:11;;;;;;;6.38;3.85;;;;;;;23.04;64.46;99971.38;5030997;28;20104;-94
2022/07/03 01:35:41;;;;;;;5.43;3.70;;;;;;;23.10;64.46;99970.19;5053038;28;20041;-90
2022/07/03 01:38:13;;;;;;;4.20;2.60;;;;;;;23.01;64.59;99970.72;5057749;28;20034;-91
2022/07/03 01:40:40;;;;;;;6.07;2.92;;;;;;;23.12;63.76;99989.78;5047657;28;20029;-93
2022/07/03 01:43:08;;;;;;;3.75;2.05;;;;;;;22.95;64.41;99971.97;5032779;28;20503;-94
2022/07/03 01:45:45;;;;;;;4.38;2.72;;;;;;;22.83;64.71;99986.16;5031381;28;20522;-95
2022/07/03 01:48:11;;;;;;;4.78;2.88;;;;;;;22.78;64.43;99975.69;5031793;28;20025;-94
2022/07/03 01:50:38;;;;;;;4.40;2.80;;;;;;;22.70;65.18;99991.44;5032164;28;20037;-93
2022/07/03 01:53:07;;;;;;;4.63;2.83;;;;;;;22.39;65.65;99979.00;5032943;28;20029;-94
2022/07/03 01:55:34;;;;;;;4.40;2.85;;;;;;;22.47;65.99;99990.13;5031308;28;20029;-94
2022/07/03 01:58:00;;;;;;;5.47;3.33;;;;;;;22.57;65.93;99990.44;5031005;28;20065;-94
2022/07/03 02:00:27;;;;;;;4.65;2.97;;;;;;;22.70;65.37;99992.28;5030907;28;20037;-94
2022/07/03 02:02:56;;;;;;;9.35;3.67;;;;;;;22.80;65.26;99992.63;5031021;28;20125;-94
2022/07/03 02:05:37;;;;;;;5.50;3.47;;;;;;;22.68;65.40;99994.22;5031050;28;20128;-94
2022/07/03 02:08:27;;;;;;;3.63;2.13;;;;;;;22.68;65.63;99990.69;5032415;28;20029;-93
2022/07/03 02:11:16;;;;;;;3.75;2.47;;;;;;;22.54;65.81;99996.88;5030933;28;20115;-93
2022/07/03 02:13:51;;;;;;;6.78;3.45;;;;;;;22.34;66.03;99972.06;5032401;28;20030;-94
2022/07/03 02:16:19;;;;;;;4.57;3.35;;;;;;;22.35;66.16;99980.97;5034249;28;20032;-93
2022/07/03 02:18:55;;;;;;;5.07;3.17;;;;;;;22.46;66.00;99983.03;5071921;28;20035;-93
2022/07/03 02:21:20;;;;;;;;;;;;;;;22.56;65.92;100003.03;5078212;28;20037;-92
2022/07/03 02:24:03;;;;;;;3.42;2.30;;;;;;;22.37;66.13;99971.03;5059978;28;19940;-92
2022/07/03 02:26:40;;;;;;;4.32;3.53;;;;;;;22.38;66.10;99988.00;5041252;28;20037;-94
2022/07/03 02:29:11;;;;;;;7.78;4.35;;;;;;;22.51;66.64;100013.19;5034572;28;20544;-94
2022/07/03 02:31:45;;;;;;;4.90;2.53;;;;;;;22.43;66.71;99996.66;5051157;28;20036;-93
2022/07/03 02:34:23;;;;;;;5.78;3.17;;;;;;;22.30;66.66;99956.19;5051645;28;20182;-94
2022/07/03 02:36:51;;;;;;;4.25;2.97;;;;;;;22.34;67.04;99980.13;5051282;28;20033;-94
2022/07/03 02:39:32;;;;;;;5.25;2.85;;;;;;;22.48;66.75;100010.69;5033699;28;20070;-94
2022/07/03 02:42:00;;;;;;;5.20;2.65;;;;;;;22.55;66.90;100003.97;5032441;28;20037;-94
2022/07/03 02:44:31;;;;;;;5.05;2.78;;;;;;;22.58;67.08;100011.84;5031566;28;20030;-93
2022/07/03 02:47:29;;;;;;;4.18;2.63;;;;;;;22.60;66.77;100011.75;5031304;28;20033;-91
2022/07/03 02:50:19;;;;;;;5.57;2.95;;;;;;;22.50;66.69;100011.47;5008656;28;20537;-94
2022/07/03 02:52:49;;;;;;;4.75;3.25;;;;;;;22.42;66.96;100017.28;5048023;28;20551;-93
2022/07/03 02:55:17;;;;;;;4.97;2.90;;;;;;;22.37;67.14;100026.56;5051820;28;20033;-94
2022/07/03 02:57:45;;;;;;;5.53;2.78;;;;;;;22.33;67.20;100015.16;5033017;28;20033;-94
2022/07/03 03:00:12;;;;;;;3.47;2.78;;;;;;;22.32;67.29;100021.47;5051382;28;20033;-94
2022/07/03 03:02:55;;;;;;;4.03;2.63;;;;;;;22.42;66.90;100013.75;5051026;28;20032;-94
2022/07/03 03:05:20;;;;;;;3.88;2.85;;;;;;;22.37;67.43;100015.81;5034268;28;20479;-94
2022/07/03 03:08:31;;;;;;;4.00;3.10;;;;;;;22.34;67.34;100020.44;5055225;28;20033;-94
2022/07/03 03:11:01;;;;;;;4.78;2.70;;;;;;;22.17;67.84;99993.66;5032909;28;20033;-94
2022/07/03 03:13:31;;;;;;;5.60;2.85;;;;;;;22.27;67.23;100019.00;5056316;28;20025;-92
2022/07/03 03:16:11;;;;;;;5.25;3.55;;;;;;;22.07;66.98;100001.38;5053446;28;20060;-93
2022/07/03 03:18:41;;;;;;;8.15;3.95;;;;;;;21.96;67.88;100010.03;5036193;28;20025;-93
2022/07/03 03:21:15;;;;;;;5.57;3.50;;;;;;;21.90;67.74;99988.91;5054294;28;20044;-93
2022/07/03 03:23:49;;;;;;;5.53;3.00;;;;;;;21.71;68.12;99956.03;5037052;28;20029;-94
2022/07/03 03:26:23;;;;;;;5.93;3.70;;;;;;;21.91;68.37;99996.03;5036765;28;20036;-94
2022/07/03 03:28:50;;;;;;;4.80;3.92;;;;;;;22.02;68.52;100013.34;5054758;28;20032;-94
2022/07/03 03:31:18;;;;;;;5.13;3.13;;;;;;;21.99;68.39;99996.44;5036883;28;20534;-94
2022/07/03 03:33:47;;;;;;;6.13;3.63;;;;;;;22.17;67.94;99997.19;5055205;28;20032;-94
2022/07/03 03:36:16;;;;;;;4.57;3.30;;;;;;;22.21;67.23;99987.13;5037085;28;20410;-94
2022/07/03 03:38:43;;;;;;;4.20;2.45;;;;;;;22.24;66.95;99992.31;5037061;28;20124;-93
2022/07/03 03:41:10;;;;;;;4.18;2.78;;;;;;;22.11;67.33;99959.09;5020495;28;20029;-93
2022/07/03 03:43:36;;;;;;;5.95;3.13;;;;;;;22.46;67.02;100009.91;5036320;28;20040;-93
2022/07/03 03:46:03;;;;;;;5.45;2.97;;;;;;;22.56;67.11;100018.31;5020956;28;20102;-95
2022/07/03 03:48:30;;;;;;;5.60;3.22;;;;;;;22.22;68.38;99986.19;5036425;28;20029;-94
2022/07/03 03:50:57;;;;;;;6.53;4.82;;;;;;;22.46;68.34;100007.22;5054307;28;20044;-94
2022/07/03 03:53:25;;;;;;;4.45;3.40;;;;;;;22.53;68.28;100005.91;5054146;28;20036;-92
2022/07/03 03:56:00;;;;;;;5.68;3.05;;;;;;;22.49;68.72;100017.78;5036067;28;20503;-93
2022/07/03 03:58:28;;;;;;;4.97;3.80;;;;;;;22.39;68.76;99982.53;5053993;28;20495;-93
2022/07/03 04:00:55;;;;;;;7.30;3.80;;;;;;;22.53;69.23;99992.47;5053421;28;20044;-94
2022/07/03 04:03:21;;;;;;;5.75;4.03;;;;;;;22.82;68.47;100000.59;5036314;28;20040;-94
2022/07/03 04:05:46;;;;;;;6.22;3.80;;;;;;;22.86;67.38;99988.66;5035575;28;20033;-93
2022/07/03 04:08:13;;;;;;;6.43;3.90;;;;;;;22.91;67.46;99986.59;5036266;28;20036;-94
2022/07/03 04:10:38;;;;;;;4.63;3.47;;;;;;;22.69;68.25;99985.22;5035072;28;20039;-94
2022/07/03 04:13:05;;;;;;;5.47;3.22;;;;;;;22.82;67.84;99984.47;5036177;28;20505;-92
2022/07/03 04:15:32;;;;;;;8.68;3.92;;;;;;;23.01;67.21;99992.25;5032395;28;20037;-93
2022/07/03 04:17:58;;;;;;;4.20;2.95;;;;;;;23.20;66.53;100008.13;5031145;28;20029;-93
2022/07/03 04:20:24;;;;;;;5.47;3.47;;;;;;;23.36;66.92;100002.66;5049370;28;20060;-94
2022/07/03 04:22:50;;;;;;;6.53;3.67;;;;;;;23.14;66.68;99963.66;5032407;28;20035;-94
2022/07/03 04:25:17;;;;;;;5.43;3.63;;;;;;;23.64;65.16;99987.44;5031882;28;20033;-94
2022/07/03 04:27:43;;;;;;;6.40;3.80;;;;;;;24.07;64.42;100012.44;5031440;28;20033;-94
2022/07/03 04:30:10;;;;;;;5.35;3.63;;;;;;;24.15;63.85;99997.59;5015768;28;20034;-94
2022/07/03 04:32:39;;;;;;;6.28;3.92;;;;;;;24.16;63.61;100002.00;5031408;28;20053;-93
2022/07/03 04:35:05;;;;;;;4.93;3.10;;;;;;;24.04;63.50;100017.19;5031394;28;20069;-95
2022/07/03 04:37:31;;;;;;;6.60;3.67;;;;;;;23.92;64.26;99994.59;5031646;28;20033;-94
2022/07/03 04:39:56;;;;;;;6.63;3.75;;;;;;;24.22;64.32;100017.78;5031263;28;20030;-95
2022/07/03 04:42:23;;;;;;;5.75;3.47;;;;;;;24.34;63.46;100021.47;5033511;28;20041;-95
2022/07/03 04:44:49;;;;;;;7.53;4.35;;;;;;;23.81;64.51;99994.41;5031433;28;20503;-94
2022/07/03 04:47:15;;;;;;;5.63;3.53;;;;;;;24.16;64.26;100026.25;5032174;28;20036;-95
2022/07/03 04:49:43;;;;;;;7.05;3.25;;;;;;;24.31;63.38;99993.78;5033318;28;20034;-95
2022/07/03 04:52:09;;;;;;;6.93;3.97;;;;;;;24.25;64.08;100009.47;5031600;28;20411;-94
2022/07/03 04:54:35;;;;;;;5.05;3.50;;;;;;;24.23;64.17;100008.72;5031914;28;20033;-94
2022/07/03 04:57:01;;;;;;;7.40;4.40;;;;;;;24.54;62.52;100018.28;5032021;28;20037;-94
2022/07/03 04:59:28;;;;;;;5.45;3.60;;;;;;;24.38;62.75;99978.03;5032230;28;20034;-94
2022/07/03 05:01:54;;;;;;;7.43;3.30;;;;;;;24.57;61.33;99996.53;5032027;28;20036;-92
2022/07/03 05:04:19;;;;;;;5.70;3.85;;;;;;;24.39;62.04;99990.56;5032779;28;20029;-94
2022/07/03 05:06:45;;;;;;;5.78;3.40;;;;;;;24.36;62.41;99947.66;5030814;28;20589;-93
2022/07/03 05:09:11;;;;;;;6.85;4.10;;;;;;;24.56;63.13;99997.50;5031710;28;20518;-90
2022/07/03 05:11:36;;;;;;;5.22;3.08;;;;;;;24.81;62.25;99988.59;5031666;28;20415;-95
2022/07/03 05:14:03;;;;;;;4.22;2.75;;;;;;;25.14;61.11;99975.53;5037354;28;20056;-95
2022/07/03 05:16:29;;;;;;;7.07;3.70;;;;;;;25.42;59.92;100006.81;5034965;28;20033;-95
2022/07/03 05:18:55;;;;;;;4.43;3.53;;;;;;;25.54;60.25;99991.59;5034944;28;20439;-95
2022/07/03 05:21:20;;;;;;;7.57;3.80;;;;;;;25.91;60.02;100024.00;5050717;28;20029;-93
2022/07/03 05:23:46;;;;;;;6.28;4.22;;;;;;;25.62;59.53;99950.50;5033930;28;20082;-91
2022/07/03 05:26:11;;;;;;;5.20;3.72;;;;;;;26.49;57.34;99993.56;5052352;28;20040;-93
2022/07/03 05:28:37;;;;;;;5.40;3.55;;;;;;;26.65;56.85;100012.19;5033931;28;20029;-95
2022/07/03 05:31:03;;;;;;;6.68;4.82;;;;;;;26.59;55.88;100014.38;5017516;28;20037;-95
2022/07/03 05:33:28;;;;;;;5.35;3.63;;;;;;;25.96;58.18;99975.88;5034040;28;20033;-94
2022/07/03 05:35:58;;;;;;;6.07;3.33;;;;;;;26.03;57.57;100003.34;5033791;28;20495;-93
2022/07/03 05:41:07;;;;;;;6.73;4.27;;;;;;;26.36;57.38;99999.91;5052687;28;20060;-94
2022/07/03 05:43:34;;;;;;;7.47;4.10;;;;;;;26.43;55.28;100003.00;5033203;28;20095;-93
2022/07/03 05:45:59;;;;;;;5.45;3.45;;;;;;;26.15;56.06;99970.00;5050956;28;20028;-92
2022/07/03 05:48:26;;;;;;;6.00;3.58;;;;;;;26.73;55.69;100010.66;5033501;28;20074;-95
2022/07/03 05:50:53;;;;;;;5.40;3.38;;;;;;;26.47;55.28;99974.75;5034415;28;20407;-95
2022/07/03 05:53:19;;;;;;;5.97;4.05;;;;;;;26.73;54.74;99974.63;5033402;28;20029;-95
2022/07/03 05:55:44;;;;;;;4.55;3.17;;;;;;;26.85;54.32;99957.41;5034459;28;20074;-92
2022/07/03 05:58:10;;;;;;;7.88;3.60;;;;;;;27.09;52.99;99989.78;5032882;28;20032;-95
2022/07/03 06:00:35;;;;;;;5.45;3.60;;;;;;;26.83;52.60;99980.16;5034044;28;20400;-95
2022/07/03 06:03:02;;;;;;;6.93;3.22;;;;;;;26.89;53.36;99980.53;5051600;28;20033;-93
2022/07/03 06:05:28;;;;;;;6.00;4.25;;;;;;;27.09;52.95;99987.06;5033594;28;20452;-94
2022/07/03 06:07:53;;;;;;;8.48;4.07;;;;;;;27.59;53.08;100003.00;5033423;28;20089;-93
2022/07/03 06:10:19;;;;;;;8.20;3.17;;;;;;;27.72;49.29;99977.59;5033367;28;20028;-95
2022/07/03 06:12:44;;;;;;;7.95;5.05;;;;;;;27.61;51.50;99992.88;5032840;28;20028;-94
2022/07/03 06:15:10;;;;;;;6.80;4.72;;;;;;;27.81;52.36;99995.81;5049497;28;20056;-93
2022/07/03 06:17:36;;;;;;;3.45;2.75;;;;;;;28.04;49.39;100002.06;5031847;28;20033;-92
2022/07/03 06:20:03;;;;;;;4.03;2.95;;;;;;;27.89;50.47;99984.34;5051314;28;20137;-94
2022/07/03 06:22:28;;;;;;;4.95;3.33;;;;;;;28.18;47.88;99943.97;5031874;28;20036;-93
2022/07/03 06:24:54;;;;;;;6.10;3.75;;;;;;;28.59;49.78;99969.41;5050773;28;20029;-92
2022/07/03 06:27:20;;;;;;;5.20;3.20;;;;;;;28.39;48.29;99990.06;5049640;28;20530;-93
2022/07/03 06:29:45;;;;;;;4.57;2.90;;;;;;;28.61;48.07;99956.59;5033280;28;20491;-93
2022/07/03 06:32:11;;;;;;;3.97;2.60;;;;;;;28.35;45.97;99966.94;5032976;28;20025;-93
2022/07/03 06:34:36;;;;;;;4.30;2.53;;;;;;;28.60;48.46;99975.72;5049744;28;20040;-94
2022/07/03 06:37:02;;;;;;;4.82;2.95;;;;;;;29.19;47.38;99990.47;5051823;28;20110;-93
2022/07/03 06:39:27;;;;;;;4.35;3.13;;;;;;;29.14;45.56;99962.88;5033101;28;20032;-93
2022/07/03 06:41:53;;;;;;;6.00;3.25;;;;;;;29.50;46.29;99961.44;5050993;28;20469;-93
2022/07/03 06:44:18;;;;;;;4.30;3.05;;;;;;;29.42;47.25;99953.13;5032286;28;20036;-94
2022/07/03 06:46:45;;;;;;;3.55;2.58;;;;;;;29.51;46.86;100005.81;5033238;28;20068;-95
2022/07/03 06:49:11;;;;;;;5.13;2.90;;;;;;;29.61;44.66;99998.53;5032935;28;20101;-96
2022/07/03 06:51:37;;;;;;;4.50;3.00;;;;;;;29.84;45.13;99995.63;5034049;28;20546;-96
2022/07/03 06:54:03;;;;;;;5.60;3.15;;;;;;;29.80;46.12;99960.56;5033406;28;20029;-95
2022/07/03 06:56:28;;;;;;;4.85;3.15;;;;;;;30.12;45.08;99989.38;5032485;28;20036;-96
2022/07/03 06:58:53;;;;;;;5.25;3.40;;;;;;;30.56;43.55;99958.16;5033866;28;20082;-94
2022/07/03 07:01:19;;;;;;;5.15;3.42;;;;;;;31.29;43.01;99982.06;5033396;28;20479;-94
2022/07/03 07:03:44;;;;;;;5.15;3.65;;;;;;;31.27;42.57;99982.19;5033987;28;20076;-95
2022/07/03 07:06:10;;;;;;;4.30;3.03;;;;;;;31.08;42.78;99980.41;5033098;28;20029;-96
2022/07/03 07:08:35;;;;;;;5.00;2.55;;;;;;;31.16;40.73;99982.41;5035821;28;20036;-95
2022/07/03 07:11:01;;;;;;;5.68;3.63;;;;;;;31.26;42.95;99977.75;5035062;28;20552;-96
2022/07/03 07:13:27;;;;;;;4.63;2.67;;;;;;;32.05;40.33;99940.00;5034214;28;20439;-94
2022/07/03 07:15:52;;;;;;;4.82;3.20;;;;;;;31.95;40.66;99932.75;5038424;28;20075;-95
2022/07/03 07:18:18;;;;;;;4.45;2.55;;;;;;;31.56;39.86;99952.09;5048563;28;20495;-95
2022/07/03 07:20:43;;;;;;;4.65;3.42;;;;;;;31.48;42.96;99970.19;5044752;28;20036;-94
2022/07/03 07:23:09;;;;;;;5.55;3.40;;;;;;;32.06;41.21;99942.56;5035318;28;20033;-96
2022/07/03 07:25:36;;;;;;;5.95;3.03;;;;;;;32.22;38.96;99976.50;5050523;28;20051;-96
2022/07/03 07:28:02;;;;;;;3.75;2.88;;;;;;;32.97;37.04;99952.34;5032171;28;20037;-93
2022/07/03 07:30:27;;;;;;;4.20;2.50;;;;;;;32.55;38.89;99964.00;5032487;28;20048;-93
2022/07/03 07:32:54;;;;;;;4.78;2.92;;;;;;;33.09;36.28;99952.06;5031891;28;20058;-95
2022/07/03 07:35:20;;;;;;;4.72;2.78;;;;;;;33.40;36.83;99968.81;5032052;28;20029;-91
2022/07/03 07:37:45;;;;;;;7.28;3.88;;;;;;;32.97;35.74;99937.84;5016826;28;20128;-94
2022/07/03 07:40:13;;;;;;;4.18;2.50;;;;;;;33.60;35.42;99963.94;5050772;28;20025;-93
2022/07/03 07:42:39;;;;;;;3.85;2.88;;;;;;;33.10;34.67;99957.34;5033043;28;20111;-94
2022/07/03 07:45:05;;;;;;;4.00;2.50;;;;;;;33.30;35.02;99960.72;5032263;28;21161;-93
2022/07/03 07:47:32;;;;;;;6.57;2.15;;;;;;;33.84;34.29;99960.44;5032075;28;20415;-92
2022/07/03 07:49:57;;;;;;;4.63;3.47;;;;;;;33.06;35.41;99958.72;5033601;28;20120;-93
2022/07/03 07:52:24;;;;;;;5.45;3.55;;;;;;;33.27;34.68;99949.28;5054656;28;20056;-94
2022/07/03 07:54:50;;;;;;;5.35;3.15;;;;;;;32.99;35.65;99941.25;5038078;28;20036;-90
2022/07/03 07:57:15;;;;;;;5.30;2.53;;;;;;;33.19;33.93;99940.00;5053316;28;20033;-94
2022/07/03 07:59:41;;;;;;;5.40;2.92;;;;;;;33.81;33.74;99955.28;5037650;28;20044;-92
2022/07/03 08:07:34;;;;;;;3.15;2.13;;;;;;;33.45;33.42;99933.63;5057119;28;20044;-90
2022/07/03 08:10:00;;;;;;;3.78;2.47;;;;;;;34.05;33.50;99910.72;5053189;28;20028;-92
2022/07/03 08:12:25;;;;;;;5.45;2.72;;;;;;;34.01;34.22;99903.84;5053334;28;20554;-93
2022/07/03 08:14:51;;;;;;;4.60;2.90;;;;;;;34.90;32.39;99933.28;5053373;28;20083;-92
2022/07/03 08:17:16;;;;;;;3.58;2.00;;;;;;;34.97;34.28;99953.44;5035526;28;21795;-92
2022/07/03 08:19:41;;;;;;;4.75;3.13;;;;;;;35.36;32.20;99943.56;5054195;28;20021;-94
2022/07/03 08:22:07;;;;;;;4.80;3.08;;;;;;;35.49;30.39;99938.38;5036237;28;20546;-96
2022/07/03 08:24:32;;;;;;;3.63;2.50;;;;;;;35.17;31.39;99950.31;5036144;28;20487;-92
2022/07/03 08:26:58;;;;;;;3.70;2.50;;;;;;;34.77;33.52;99967.56;5053046;28;20115;-91
2022/07/03 08:29:24;;;;;;;3.60;2.30;;;;;;;34.47;32.66;99938.97;5053655;28;20033;-94
2022/07/03 08:31:50;;;;;;;4.05;3.13;;;;;;;34.53;31.87;99923.72;5036192;28;20090;-95
2022/07/03 08:34:16;;;;;;;4.80;2.85;;;;;;;34.81;34.46;99950.75;5035376;28;20045;-95
2022/07/03 08:36:42;;;;;;;4.63;2.90;;;;;;;34.87;32.99;99963.75;5035361;28;20036;-93
2022/07/03 08:39:07;;;;;;;5.90;4.70;;;;;;;34.86;33.27;99916.31;5035450;28;20115;-94
2022/07/03 08:41:37;;;;;;;10.57;5.80;;;;;;;35.58;33.13;99944.69;5052727;28;20037;-92
2022/07/03 08:44:04;;;;;;;6.50;4.53;;;;;;;35.68;33.65;99937.06;5034961;28;20033;-93
2022/07/03 08:46:34;;;;;;;4.38;3.42;;;;;;;35.30;30.23;99945.16;5053312;28;20040;-94
2022/07/03 08:49:01;;;;;;;4.30;2.90;;;;;;;35.06;30.72;99952.38;5034939;28;20060;-92
2022/07/03 08:51:27;;;;;;;5.32;3.35;;;;;;;34.46;32.16;99936.41;5035846;28;20029;-94
2022/07/03 08:53:56;;;;;;;6.80;3.83;;;;;;;35.72;30.54;99970.50;5035056;28;20036;-94
2022/07/03 08:56:23;;;;;;;4.07;2.88;;;;;;;35.51;30.73;99928.06;5053195;28;20064;-93
2022/07/03 08:58:48;;;;;;;3.28;2.20;;;;;;;35.58;29.99;99937.31;5035072;28;20091;-94
2022/07/03 09:01:18;;;;;;;3.78;2.28;;;;;;;35.31;33.22;99923.06;5053008;28;20453;-93
2022/07/03 09:03:45;;;;;;;3.67;2.15;;;;;;;35.45;29.75;99905.00;5034714;28;20119;-96
2022/07/03 09:06:13;;;;;;;4.25;2.58;;;;;;;35.36;28.15;99927.13;5030875;28;20025;-95
2022/07/03 09:08:40;;;;;;;3.75;2.58;;;;;;;35.81;30.37;99942.84;5031113;28;20033;-93
2022/07/03 09:11:06;;;;;;;3.97;2.55;;;;;;;35.41;28.60;99906.38;5014352;28;20060;-92
2022/07/03 09:13:32;;;;;;;2.78;1.67;;;;;;;36.13;27.62;99938.19;5014546;28;20037;-94
2022/07/03 09:15:58;;;;;;;3.05;2.08;;;;;;;36.18;27.28;99948.59;5050073;28;20033;-92
2022/07/03 09:18:38;;;;;;;5.25;2.47;;;;;;;35.85;27.12;99949.69;5052383;28;20032;-92
2022/07/03 09:21:04;;;;;;;3.45;2.58;;;;;;;35.43;28.03;99950.06;5033907;28;20049;-94
2022/07/03 09:23:36;;;;;;;2.83;2.20;;;;;;;35.79;26.93;99942.19;5051851;28;20029;-91
2022/07/03 09:26:03;;;;;;;2.47;1.77;;;;;;;35.71;26.04;99891.97;5052255;28;20036;-90
2022/07/03 09:28:52;;;;;;;2.83;1.95;;;;;;;35.98;26.02;99938.09;5051275;28;20060;-93
2022/07/03 09:31:26;;;;;;;3.45;2.38;;;;;;;35.65;26.07;99910.88;5033256;28;20041;-92
2022/07/03 09:34:03;;;;;;;2.75;1.95;;;;;;;35.92;27.60;99922.38;5051127;28;20021;-90
2022/07/03 09:36:45;;;;;;;3.25;2.00;;;;;;;35.91;27.56;99936.28;5052220;28;20116;-91
2022/07/03 09:39:28;;;;;;;3.25;2.22;;;;;;;35.96;27.18;99942.06;5051449;28;20100;-92
2022/07/03 09:42:02;;;;;;;3.28;2.15;;;;;;;35.95;28.70;99934.88;5033603;28;20029;-95
2022/07/03 09:44:31;;;;;;;3.53;2.20;;;;;;;35.87;30.59;99922.06;5017510;28;20045;-95
2022/07/03 09:47:18;;;;;;;7.80;3.13;;;;;;;34.59;30.41;99912.09;5015341;28;20060;-92
2022/07/03 09:49:56;;;;;;;3.90;2.00;;;;;;;34.89;27.96;99929.66;5031029;28;20033;-95
2022/07/03 09:52:36;;;;;;;5.47;3.10;;;;;;;35.06;29.81;99892.09;5013796;28;20492;-91
2022/07/03 09:55:11;;;;;;;2.83;2.05;;;;;;;35.75;29.84;99935.31;5022588;28;20140;-93
2022/07/03 09:57:38;;;;;;;4.28;2.25;;;;;;;35.58;30.36;99926.34;5033581;28;20036;-91
2022/07/03 10:00:18;;;;;;;4.13;2.65;;;;;;;35.75;28.96;99929.81;5050791;28;20029;-92
2022/07/03 10:02:54;;;;;;;6.75;3.35;;;;;;;36.17;30.29;99903.81;5051264;28;20407;-90
2022/07/03 10:05:30;;;;;;;6.60;2.80;;;;;;;36.33;28.68;99907.47;5032120;28;20044;-91
2022/07/03 10:07:57;;;;;;;4.78;2.50;;;;;;;36.27;27.81;99899.97;5031697;28;20407;-90
2022/07/03 10:10:24;;;;;;;2.85;2.05;;;;;;;35.82;28.63;99865.00;5030780;28;20037;-93
2022/07/03 10:12:52;;;;;;;3.35;2.15;;;;;;;35.42;29.81;99902.59;5031417;28;20091;-91
2022/07/03 10:15:19;;;;;;;3.17;2.08;;;;;;;35.66;27.66;99895.25;5029923;28;20069;-94
2022/07/03 10:17:48;;;;;;;3.33;2.03;;;;;;;35.22;34.98;99869.25;5031877;28;20037;-94
2022/07/03 10:20:14;;;;;;;4.50;2.47;;;;;;;36.00;30.28;99861.91;5029165;28;20030;-92
2022/07/03 10:22:44;;;;;;;3.20;2.30;;;;;;;36.63;29.11;99880.91;5030777;28;20025;-91
2022/07/03 10:25:10;;;;;;;5.75;2.40;;;;;;;36.41;31.41;99854.38;5031493;28;20030;-92
2022/07/03 10:27:36;;;;;;;3.33;1.98;;;;;;;35.81;29.23;99870.66;5029755;28;20076;-89
2022/07/03 10:30:03;;;;;;;5.82;2.67;;;;;;;35.02;31.00;99868.84;5031100;28;20076;-91
2022/07/03 10:32:32;;;;;;;2.88;2.13;;;;;;;35.34;31.36;99880.69;5031391;28;20037;-93
2022/07/03 10:34:58;;;;;;;3.65;1.70;;;;;;;34.96;30.28;99856.69;5030186;28;20041;-93
2022/07/03 10:37:28;;;;;;;3.00;2.15;;;;;;;35.31;29.10;99870.97;5031191;28;20442;-91
2022/07/03 10:46:14;;;;;;;2.80;2.13;;;;;;;34.52;29.84;99878.19;5031367;28;20080;-91
2022/07/03 10:49:08;;;;;;;4.03;2.40;;;;;;;34.52;29.69;99873.56;5030349;28;20032;-89
2022/07/03 10:52:00;;;;;;;3.00;1.90;;;;;;;34.60;30.21;99868.09;5030882;28;20030;-91
2022/07/03 10:54:36;;;;;;;3.90;2.60;;;;;;;34.48;29.24;99869.50;5031161;28;20622;-92
2022/07/03 10:57:02;;;;;;;3.00;1.95;;;;;;;34.88;29.62;99875.03;5029206;28;20033;-91
2022/07/03 10:59:36;;;;;;;3.15;2.30;;;;;;;34.66;29.61;99868.41;5029448;28;20025;-93
2022/07/03 11:02:20;;;;;;;5.57;2.50;;;;;;;34.93;31.00;99865.28;5030454;28;20026;-91
2022/07/03 11:04:58;;;;;;;7.05;2.60;;;;;;;34.85;30.15;99857.09;5031225;28;20025;-90
2022/07/03 11:07:25;;;;;;;5.13;3.13;;;;;;;34.79;30.27;99830.41;5030490;28;20078;-89
2022/07/03 11:10:08;;;;;;;3.28;2.47;;;;;;;35.45;30.14;99858.38;5030664;28;20025;-92
2022/07/03 11:12:59;;;;;;;3.88;2.20;;;;;;;35.26;30.43;99854.19;5030809;28;20538;-90
2022/07/03 11:15:32;;;;;;;6.25;4.10;;;;;;;35.59;30.64;99850.38;5046254;28;20045;-90
2022/07/03 11:18:20;;;;;;;3.97;2.08;;;;;;;36.19;28.08;99838.59;5050184;28;20044;-93
2022/07/03 11:20:49;;;;;;;2.95;2.15;;;;;;;36.29;29.31;99813.66;5032676;28;20035;-91
2022/07/03 11:23:27;;;;;;;2.63;1.80;;;;;;;36.13;28.61;99835.72;5049315;28;20147;-90
2022/07/03 11:25:58;;;;;;;3.63;2.13;;;;;;;35.50;30.27;99831.25;5050324;28;20025;-90
2022/07/03 11:28:33;;;;;;;3.28;2.10;;;;;;;35.37;28.66;99830.13;5052036;28;20033;-89
2022/07/03 11:31:07;;;;;;;3.92;2.70;;;;;;;34.96;30.32;99831.19;5054588;28;20108;-90
2022/07/03 11:33:42;;;;;;;2.88;2.10;;;;;;;35.19;29.66;99825.75;5054401;28;20135;-91
2022/07/03 11:36:16;;;;;;;;;;;;;;;35.52;28.67;99827.47;5054830;28;20513;-90
2022/07/03 11:39:00;;;;;;;4.50;2.83;;;;;;;35.27;29.80;99800.22;5054318;28;19913;-90
2022/07/03 11:41:27;;;;;;;4.78;2.20;;;;;;;35.48;29.89;99811.38;5054158;28;20487;-89
2022/07/03 11:43:58;;;;;;;2.70;2.05;;;;;;;35.65;28.98;99814.88;5053284;28;20033;-89
2022/07/03 11:46:29;;;;;;;3.45;2.10;;;;;;;35.04;30.70;99795.50;5053794;28;20491;-91
2022/07/03 11:49:25;;;;;;;3.22;2.28;;;;;;;34.94;31.23;99803.09;5035262;28;20055;-89
2022/07/03 11:52:01;;;;;;;3.97;2.03;;;;;;;35.02;31.83;99808.56;5041085;28;20037;-89
2022/07/03 11:54:50;;;;;;;3.65;2.88;;;;;;;34.78;29.72;99801.28;5035827;28;20033;-87
2022/07/03 11:57:15;;;;;;;3.45;2.47;;;;;;;34.10;29.83;99799.91;5033709;28;20482;-86
2022/07/03 11:59:41;;;;;;;2.90;2.33;;;;;;;33.95;31.07;99775.09;5053401;28;20056;-88